Dawson Springs, Kentucky
Current Conditions -  °F | °C
As of 2:15 PM on Friday 31 Oct 2014 (Local Time) from K2I0 Reporting Station
Overcast Overcast  
Wind Chill: 40°   Ceiling: 4600
Heat Index: 46°   Visibility: 10mi
Dew Point: 30°   Wind: 16mph
Humidity: 53%   Direction: 330°NNW
Pressure: 30.11"   Gusts: 29mph
Location:  37.17°N, 87.69°W
Report Text: K2I0 311915Z AUTO 33014G25KT 10SM SCT038 OVC046 08/M01 A3011 RMK AO2 T00791011
Loading
Personal Weather Stations






























Interactive Weather Map
Tropical Storm Tracking
New forecast layout! Learn more

10-Day Weather Forecast

Advertisements
Track Severe Weather on mobile